Time;durP1;ratioP1;P1;durP2;ratioP2;P2;SDS_P1;SDS_P2;PMS_P1;PMS_P2;Temp;Humidity;BMP_temperature;BMP_pressure;BME280_temperature;BME280_humidity;BME280_pressure;Samples;Min_cycle;Max_cycle;Signal;HPM_P1;HPM_P2
2024/01/04 00:01:25;;;;;;;6.38;2.08;;;;;;;-146.27;93.20;32868.78;5057740;28;20028;-72
2024/01/04 00:03:51;;;;;;;13.63;2.25;;;;;;;-146.27;93.12;32866.81;5069616;28;20032;-72
2024/01/04 00:06:17;;;;;;;8.80;2.00;;;;;;;-146.27;93.08;32823.16;5070025;28;20026;-71
2024/01/04 00:08:42;;;;;;;12.75;2.40;;;;;;;-146.27;92.96;32831.09;5063346;28;20388;-72
2024/01/04 00:11:08;;;;;;;15.45;2.83;;;;;;;-146.27;93.52;32819.19;5066930;28;20016;-72
2024/01/04 00:13:33;;;;;;;10.48;2.38;;;;;;;-146.27;94.28;32868.78;5059610;28;20087;-71
2024/01/04 00:15:59;;;;;;;9.50;2.38;;;;;;;-146.27;94.97;32839.03;5068818;28;20487;-71
2024/01/04 00:18:24;;;;;;;13.95;2.35;;;;;;;-146.27;95.39;32866.81;5069083;28;20069;-71
2024/01/04 00:20:50;;;;;;;9.40;2.22;;;;;;;-146.27;95.26;32769.59;5065672;28;20028;-71
2024/01/04 00:23:16;;;;;;;7.30;2.88;;;;;;;-146.27;94.79;32811.25;5067925;28;20496;-72
2024/01/04 00:25:41;;;;;;;20.52;2.38;;;;;;;-146.27;94.91;32779.50;5070962;28;20126;-71
2024/01/04 00:28:07;;;;;;;13.13;2.78;;;;;;;-146.27;95.04;32823.16;5054062;28;20028;-71
2024/01/04 00:30:32;;;;;;;13.55;2.63;;;;;;;-146.27;94.69;32829.09;5058783;28;20028;-71
2024/01/04 00:32:57;;;;;;;12.52;2.92;;;;;;;-146.27;94.56;32811.25;5064174;28;20069;-71
2024/01/04 00:35:23;;;;;;;17.58;3.42;;;;;;;-146.27;94.79;32797.38;5066831;28;20055;-72
2024/01/04 00:37:49;;;;;;;23.13;4.13;;;;;;;-146.27;94.13;32759.66;5067852;28;20028;-72
2024/01/04 00:40:14;;;;;;;24.08;4.13;;;;;;;-146.27;93.97;32759.66;5059773;28;20033;-71
2024/01/04 00:42:40;;;;;;;10.80;3.70;;;;;;;-146.27;94.32;32747.78;5074686;28;20073;-72
2024/01/04 00:45:05;;;;;;;12.15;3.80;;;;;;;-146.27;94.37;32799.34;5072091;28;20029;-72
2024/01/04 00:47:31;;;;;;;13.60;4.05;;;;;;;-146.27;94.88;32799.34;5068436;28;20078;-72
2024/01/04 00:49:57;;;;;;;31.05;5.28;;;;;;;-146.27;95.19;32835.06;5073921;28;20024;-71
2024/01/04 00:52:22;;;;;;;20.80;4.43;;;;;;;-146.27;95.00;32791.41;5068904;28;20073;-72
2024/01/04 00:54:48;;;;;;;16.27;4.90;;;;;;;-146.27;94.91;32817.19;5060958;28;20163;-72
2024/01/04 00:57:13;;;;;;;15.60;4.15;;;;;;;-146.27;94.99;32876.72;5071830;28;20054;-71
2024/01/04 00:59:38;;;;;;;13.18;4.10;;;;;;;-146.27;94.43;32759.66;5070403;28;20045;-72
2024/01/04 01:02:04;;;;;;;19.33;3.63;;;;;;;-146.27;93.66;32854.91;5071846;28;20040;-72
2024/01/04 01:04:31;;;;;;;8.38;2.65;;;;;;;-146.27;93.38;32878.72;5073852;28;20662;-72
2024/01/04 01:06:56;;;;;;;11.45;2.38;;;;;;;-146.27;92.81;32942.19;5073279;28;20069;-71
2024/01/04 01:09:21;;;;;;;6.28;2.33;;;;;;;-146.27;92.55;32942.19;5068901;28;20052;-71
2024/01/04 01:11:47;;;;;;;10.18;3.28;;;;;;;-146.27;92.44;32948.13;5064771;28;20036;-71
2024/01/04 01:14:12;;;;;;;11.35;3.15;;;;;;;-146.27;92.44;32898.53;5063889;28;20516;-71
2024/01/04 01:16:38;;;;;;;15.05;2.75;;;;;;;-146.27;92.72;32964.00;5070373;28;20059;-71
2024/01/04 01:19:03;;;;;;;7.05;2.38;;;;;;;-146.27;92.90;32916.41;5065405;28;20489;-71
2024/01/04 01:21:28;;;;;;;20.13;4.03;;;;;;;-146.27;93.55;32962.03;5068878;28;20099;-71
2024/01/04 01:23:54;;;;;;;11.60;3.35;;;;;;;-146.27;92.20;32886.63;5077580;28;20395;-71
2024/01/04 01:26:20;;;;;;;18.60;3.28;;;;;;;-146.27;92.37;32882.66;5069307;28;20365;-72
2024/01/04 01:28:45;;;;;;;6.68;3.17;;;;;;;-146.27;92.63;32930.28;5057832;28;20044;-72
2024/01/04 01:31:11;;;;;;;12.63;3.83;;;;;;;-146.27;92.99;32874.75;5063501;28;20028;-72
2024/01/04 01:33:36;;;;;;;19.15;3.78;;;;;;;-146.27;93.09;32862.84;5071701;28;20137;-72
2024/01/04 01:36:02;;;;;;;11.52;3.53;;;;;;;-146.27;93.14;32906.47;5074269;28;20403;-72
2024/01/04 01:38:28;;;;;;;13.38;4.68;;;;;;;-146.27;93.25;32827.13;5067989;28;20392;-72
2024/01/04 01:40:54;;;;;;;25.95;5.18;;;;;;;-146.27;93.41;32846.97;5072686;28;20020;-72
2024/01/04 01:43:19;;;;;;;13.93;5.50;;;;;;;-146.27;93.87;32886.63;5075220;28;20485;-72
2024/01/04 01:45:46;;;;;;;17.45;5.32;;;;;;;-146.27;93.84;32846.97;5074477;28;20032;-72
2024/01/04 01:48:14;;;;;;;21.00;5.78;;;;;;;-146.27;94.11;32795.38;5065602;28;20060;-72
2024/01/04 01:50:40;;;;;;;27.60;6.82;;;;;;;-146.27;94.48;32920.38;5073678;28;20051;-72
2024/01/04 01:53:07;;;;;;;21.80;5.45;;;;;;;-146.27;94.57;32848.94;5070375;28;20099;-72
2024/01/04 01:55:32;;;;;;;23.23;5.43;;;;;;;-146.27;94.05;32803.31;5063896;28;20029;-72
2024/01/04 01:57:59;;;;;;;17.70;5.57;;;;;;;-146.27;94.50;32839.03;5067173;28;20124;-72
2024/01/04 02:00:24;;;;;;;19.95;6.10;;;;;;;-146.27;94.65;32839.03;5068497;28;20068;-72
2024/01/04 02:02:50;;;;;;;14.60;5.25;;;;;;;-146.27;94.37;32795.38;5055376;28;20059;-72
2024/01/04 02:05:16;;;;;;;29.55;8.10;;;;;;;-146.27;94.43;32831.09;5073366;28;20039;-72
2024/01/04 02:07:43;;;;;;;25.92;6.97;;;;;;;-146.27;94.59;32823.16;5065892;28;20392;-72
2024/01/04 02:10:09;;;;;;;19.63;8.10;;;;;;;-146.27;94.38;32775.53;5071828;28;20032;-72
2024/01/04 02:12:35;;;;;;;21.13;5.82;;;;;;;-146.27;93.07;32712.06;5059141;28;20060;-72
2024/01/04 02:15:00;;;;;;;9.68;3.28;;;;;;;-146.27;91.94;32723.97;5071837;28;20079;-72
2024/01/04 02:17:26;;;;;;;4.95;1.10;;;;;;;-146.27;91.37;32694.22;5078207;28;20431;-72
2024/01/04 02:19:51;;;;;;;6.97;1.33;;;;;;;-146.27;90.75;32731.91;5058168;28;20097;-72
2024/01/04 02:22:17;;;;;;;4.22;1.10;;;;;;;-146.27;90.37;32799.34;5071664;28;20104;-72
2024/01/04 02:24:43;;;;;;;6.65;1.42;;;;;;;-146.27;90.34;32799.34;5067794;28;20094;-72
2024/01/04 02:27:08;;;;;;;3.13;1.20;;;;;;;-146.27;90.50;32795.38;5065638;28;20040;-73
2024/01/04 02:29:34;;;;;;;5.50;1.10;;;;;;;-146.27;90.81;32850.94;5072475;28;20029;-72
2024/01/04 02:31:59;;;;;;;8.75;1.25;;;;;;;-146.27;90.77;32850.94;5083490;28;20071;-73
2024/01/04 02:34:25;;;;;;;9.85;1.27;;;;;;;-146.27;91.10;32916.41;5068730;28;20024;-72
2024/01/04 02:36:50;;;;;;;5.68;1.05;;;;;;;-146.27;92.19;32936.25;5064708;28;20024;-73
2024/01/04 02:39:15;;;;;;;11.00;1.40;;;;;;;-146.27;91.85;32882.66;5067778;28;20035;-72
2024/01/04 02:41:41;;;;;;;5.20;1.15;;;;;;;-146.27;91.89;32973.94;5078209;28;20546;-72
2024/01/04 02:44:06;;;;;;;5.22;0.95;;;;;;;-146.27;92.00;32950.13;5067791;28;20047;-72
2024/01/04 02:46:31;;;;;;;4.65;1.00;;;;;;;-146.27;92.12;32926.31;5069780;28;20111;-72
2024/01/04 02:48:57;;;;;;;5.78;1.02;;;;;;;-146.27;92.12;32934.25;5068816;28;20173;-72
2024/01/04 02:51:22;;;;;;;4.38;0.80;;;;;;;-146.27;92.52;32969.97;5069058;28;20021;-72
2024/01/04 02:53:48;;;;;;;11.10;1.20;;;;;;;-146.27;92.27;32969.97;5070225;28;20043;-72
2024/01/04 02:56:13;;;;;;;7.30;1.02;;;;;;;-146.27;92.07;32958.06;5066931;28;20104;-72
2024/01/04 02:58:38;;;;;;;5.03;1.10;;;;;;;-146.27;92.04;32938.22;5071204;28;20567;-72
2024/01/04 03:01:04;;;;;;;7.72;1.17;;;;;;;-146.27;91.90;32882.66;5065021;28;20029;-72
2024/01/04 03:03:30;;;;;;;4.20;1.35;;;;;;;-146.27;92.04;32916.41;5067350;28;20019;-72
2024/01/04 03:05:56;;;;;;;6.05;1.10;;;;;;;-146.27;92.05;32926.31;5057012;28;20024;-71
2024/01/04 03:08:21;;;;;;;10.40;1.30;;;;;;;-146.27;92.19;32930.28;5068889;28;20094;-71
2024/01/04 03:10:47;;;;;;;3.80;1.80;;;;;;;-146.27;92.06;32884.66;5067849;28;20111;-72
2024/01/04 03:13:12;;;;;;;2.85;1.40;;;;;;;-146.27;92.10;32922.34;5059524;28;20036;-72
2024/01/04 03:15:37;;;;;;;5.93;1.60;;;;;;;-146.27;92.09;32922.34;5052140;28;20548;-72
2024/01/04 03:18:03;;;;;;;8.85;2.13;;;;;;;-146.27;92.36;32918.38;5065333;28;20500;-72
2024/01/04 03:20:28;;;;;;;8.18;2.03;;;;;;;-146.27;92.55;32882.66;5059383;28;20656;-72
2024/01/04 03:22:53;;;;;;;11.32;2.20;;;;;;;-146.27;93.28;32954.09;5067839;28;20024;-72
2024/01/04 03:25:19;;;;;;;7.70;3.28;;;;;;;-146.27;93.56;32910.44;5069196;28;20028;-72
2024/01/04 03:27:44;;;;;;;12.52;3.60;;;;;;;-146.27;94.29;32914.41;5068484;28;20032;-72
2024/01/04 03:30:10;;;;;;;13.40;4.18;;;;;;;-146.27;94.08;32908.47;5061541;28;20485;-72
2024/01/04 03:32:36;;;;;;;19.60;4.63;;;;;;;-146.27;93.98;32906.47;5063764;28;20039;-72
2024/01/04 03:35:02;;;;;;;18.33;5.10;;;;;;;-146.27;94.67;32866.81;5060869;28;20056;-71
2024/01/04 03:37:27;;;;;;;15.35;5.53;;;;;;;-146.27;94.67;32846.97;5062871;28;20040;-72
2024/01/04 03:39:53;;;;;;;14.98;5.72;;;;;;;-146.27;94.71;32841.00;5069746;28;20403;-71
2024/01/04 03:42:18;;;;;;;20.13;5.75;;;;;;;-146.27;95.39;32852.91;5068725;28;20508;-72
2024/01/04 03:44:44;;;;;;;20.02;5.38;;;;;;;-146.27;95.96;32874.75;5067926;28;20055;-72
2024/01/04 03:47:09;;;;;;;22.10;7.18;;;;;;;-146.27;95.55;32854.91;5068904;28;20021;-72
2024/01/04 03:49:35;;;;;;;17.75;4.60;;;;;;;-146.27;95.42;32878.72;5066081;28;20016;-72
2024/01/04 03:52:01;;;;;;;19.65;5.32;;;;;;;-146.27;95.53;32850.94;5066978;28;20036;-72
2024/01/04 03:54:27;;;;;;;19.45;7.28;;;;;;;-146.27;95.96;32858.88;5063594;28;20104;-72
2024/01/04 03:56:54;;;;;;;18.38;5.55;;;;;;;-146.27;95.66;32777.53;5055907;28;20136;-72
2024/01/04 03:59:19;;;;;;;16.08;5.53;;;;;;;-146.27;94.91;32779.50;5067763;28;20047;-71
2024/01/04 04:01:45;;;;;;;19.15;5.20;;;;;;;-146.27;94.19;32755.69;5064676;28;20033;-72
2024/01/04 04:04:11;;;;;;;12.63;4.72;;;;;;;-146.27;94.92;32831.09;5060181;28;20067;-72
2024/01/04 04:06:37;;;;;;;11.38;4.70;;;;;;;-146.27;94.92;32811.25;5065942;28;20033;-72
2024/01/04 04:09:02;;;;;;;20.98;5.93;;;;;;;-146.27;94.45;32747.78;5051804;28;20087;-72
2024/01/04 04:11:28;;;;;;;15.25;5.47;;;;;;;-146.27;94.49;32779.50;5058829;28;20021;-71
2024/01/04 04:13:54;;;;;;;19.80;4.32;;;;;;;-146.27;94.44;32755.69;5063617;28;20056;-72
2024/01/04 04:16:19;;;;;;;16.55;4.82;;;;;;;-146.27;94.17;32745.78;5072835;28;20024;-72
2024/01/04 04:18:45;;;;;;;18.40;5.47;;;;;;;-146.27;93.98;32737.84;5068640;28;20052;-71
2024/01/04 04:21:20;;;;;;;13.45;4.93;;;;;;;-146.27;94.05;32763.63;5069149;28;20111;-72
2024/01/04 04:23:49;;;;;;;20.67;4.25;;;;;;;-146.27;94.21;32819.19;5063133;28;20046;-71
2024/01/04 04:26:17;;;;;;;22.98;4.32;;;;;;;-146.27;94.24;32803.31;5075211;28;20032;-72
2024/01/04 04:28:42;;;;;;;12.98;4.72;;;;;;;-146.27;94.34;32815.22;5051781;28;20044;-71
2024/01/04 04:31:12;;;;;;;15.35;4.07;;;;;;;-146.27;93.61;32716.03;5052094;28;20033;-72
2024/01/04 04:33:37;;;;;;;18.48;5.07;;;;;;;-146.27;93.19;32686.28;5056715;28;20024;-72
2024/01/04 04:36:03;;;;;;;14.48;5.15;;;;;;;-146.27;93.17;32716.03;5073121;28;20039;-72
2024/01/04 04:38:28;;;;;;;11.65;4.05;;;;;;;-146.27;93.00;32727.94;5070369;28;20025;-71
2024/01/04 04:40:54;;;;;;;15.68;4.22;;;;;;;-146.27;92.74;32692.22;5065668;28;20384;-72
2024/01/04 04:43:19;;;;;;;25.13;4.65;;;;;;;-146.27;93.19;32680.31;5063816;28;20516;-71
2024/01/04 04:45:44;;;;;;;15.02;3.88;;;;;;;-146.27;93.18;32666.44;5059886;28;20035;-71
2024/01/04 04:48:10;;;;;;;19.23;4.38;;;;;;;-146.27;93.14;32721.97;5070619;28;20017;-72
2024/01/04 04:50:35;;;;;;;10.10;4.05;;;;;;;-146.27;92.87;32702.13;5068033;28;20384;-71
2024/01/04 04:53:00;;;;;;;13.35;3.85;;;;;;;-146.27;92.87;32650.56;5062632;28;20063;-71
2024/01/04 04:55:26;;;;;;;15.68;3.90;;;;;;;-146.27;93.60;32727.94;5065376;28;20028;-71
2024/01/04 04:57:51;;;;;;;17.17;4.43;;;;;;;-146.27;93.30;32741.81;5067392;28;20024;-71
2024/01/04 05:00:17;;;;;;;17.90;4.50;;;;;;;-146.27;93.46;32735.88;5056982;28;20124;-71
2024/01/04 05:02:42;;;;;;;12.85;4.15;;;;;;;-146.27;94.05;32739.84;5066980;28;20074;-71
2024/01/04 05:05:08;;;;;;;14.70;4.72;;;;;;;-146.27;93.96;32763.63;5062779;28;20364;-71
2024/01/04 05:07:33;;;;;;;10.35;3.50;;;;;;;-146.27;93.20;32844.97;5067359;28;20391;-70
2024/01/04 05:09:58;;;;;;;6.85;1.83;;;;;;;-146.27;92.93;32868.78;5065239;28;20098;-71
2024/01/04 05:12:24;;;;;;;9.90;1.95;;;;;;;-146.27;92.90;32886.63;5064837;28;20364;-71
2024/01/04 05:14:50;;;;;;;6.15;2.08;;;;;;;-146.27;92.62;32902.50;5069996;28;20044;-71
2024/01/04 05:17:15;;;;;;;7.05;1.90;;;;;;;-146.27;92.55;32902.50;5073025;28;20037;-70
2024/01/04 05:19:44;;;;;;;6.82;2.20;;;;;;;-146.27;92.76;32916.41;5066680;28;20059;-71
2024/01/04 05:22:09;;;;;;;9.38;2.78;;;;;;;-146.27;92.95;32888.63;5063842;28;20033;-71
2024/01/04 05:24:37;;;;;;;10.95;2.53;;;;;;;-146.27;93.86;32940.22;5061144;28;20116;-72
2024/01/04 05:27:03;;;;;;;7.43;3.10;;;;;;;-146.27;94.30;32918.38;5074408;28;20146;-72
2024/01/04 05:29:28;;;;;;;7.95;2.80;;;;;;;-146.27;94.13;32896.56;5071512;28;20119;-71
2024/01/04 05:31:54;;;;;;;12.90;2.85;;;;;;;-146.27;93.71;32831.09;5073587;28;20016;-71
2024/01/04 05:34:19;;;;;;;12.52;2.92;;;;;;;-146.27;93.89;32876.72;5066210;28;20050;-72
2024/01/04 05:36:46;;;;;;;9.50;3.13;;;;;;;-146.27;93.46;32815.22;5081639;28;20070;-71
2024/01/04 05:39:11;;;;;;;8.85;3.78;;;;;;;-146.27;94.17;32846.97;5072112;28;20043;-71
2024/01/04 05:41:36;;;;;;;7.07;3.13;;;;;;;-146.27;94.14;32841.00;5068407;28;20511;-72
2024/01/04 05:44:03;;;;;;;11.38;2.85;;;;;;;-146.27;94.19;32882.66;5060603;28;20097;-71
2024/01/04 05:46:28;;;;;;;6.05;2.92;;;;;;;-146.27;94.13;32841.00;5074454;28;20032;-72
2024/01/04 05:48:54;;;;;;;11.55;3.72;;;;;;;-146.27;93.63;32799.34;5067121;28;20477;-73
2024/01/04 05:51:19;;;;;;;11.38;2.88;;;;;;;-146.27;93.76;32813.25;5070204;28;20082;-72
2024/01/04 05:53:45;;;;;;;6.13;3.22;;;;;;;-146.27;93.67;32803.31;5071013;28;20020;-72
2024/01/04 05:56:10;;;;;;;10.70;4.32;;;;;;;-146.27;93.95;32868.78;5069355;28;20036;-71
2024/01/04 05:58:36;;;;;;;7.63;3.40;;;;;;;-146.27;93.97;32819.19;5068341;28;20673;-71
2024/01/04 06:01:01;;;;;;;17.30;4.22;;;;;;;-146.27;94.07;32783.47;5061582;28;20033;-71
2024/01/04 06:03:26;;;;;;;12.43;3.78;;;;;;;-146.27;93.85;32829.09;5070244;28;20086;-72
2024/01/04 06:05:52;;;;;;;14.77;4.18;;;;;;;-146.27;94.03;32848.94;5067842;28;20032;-72
2024/01/04 06:08:17;;;;;;;9.32;4.00;;;;;;;-146.27;94.38;32876.72;5072449;28;20021;-71
2024/01/04 06:10:43;;;;;;;11.23;4.22;;;;;;;-146.27;93.66;32783.47;5065860;28;20025;-72
2024/01/04 06:13:08;;;;;;;19.08;4.40;;;;;;;-146.27;93.41;32698.19;5055676;28;20033;-72
2024/01/04 06:15:34;;;;;;;12.27;4.20;;;;;;;-146.27;93.60;32779.50;5066571;28;20056;-72
2024/01/04 06:17:59;;;;;;;19.90;5.07;;;;;;;-146.27;94.48;32803.31;5067027;28;20029;-72
2024/01/04 06:20:25;;;;;;;18.52;4.25;;;;;;;-146.27;94.72;32860.84;5063892;28;20031;-72
2024/01/04 06:22:51;;;;;;;14.02;4.65;;;;;;;-146.27;94.52;32835.06;5069407;28;20085;-71
2024/01/04 06:25:16;;;;;;;16.63;4.15;;;;;;;-146.27;93.68;32763.63;5070826;28;20036;-72
2024/01/04 06:27:41;;;;;;;15.55;3.38;;;;;;;-146.27;93.27;32721.97;5068280;28;20032;-72
2024/01/04 06:30:07;;;;;;;14.57;4.55;;;;;;;-146.27;93.29;32725.94;5072481;28;20055;-72
2024/01/04 06:32:33;;;;;;;14.82;3.95;;;;;;;-146.27;93.12;32747.78;5070028;28;20021;-72
2024/01/04 06:34:58;;;;;;;17.05;4.10;;;;;;;-146.27;92.81;32714.03;5068972;28;20098;-72
2024/01/04 06:37:24;;;;;;;17.30;4.28;;;;;;;-146.27;92.60;32704.13;5065903;28;20032;-72
2024/01/04 06:39:50;;;;;;;19.27;3.67;;;;;;;-146.27;92.17;32721.97;5066258;28;20051;-72
2024/01/04 06:42:16;;;;;;;17.23;3.17;;;;;;;-146.27;92.31;32731.91;5071495;28;20032;-72
2024/01/04 06:44:42;;;;;;;10.85;3.45;;;;;;;-146.27;92.61;32811.25;5063488;28;20028;-72
2024/01/04 06:47:08;;;;;;;5.60;2.15;;;;;;;-146.27;91.74;32765.63;5068835;28;20028;-72
2024/01/04 06:49:33;;;;;;;5.13;1.38;;;;;;;-146.27;90.60;32876.72;5068786;28;20040;-74
2024/01/04 06:51:58;;;;;;;3.38;0.80;;;;;;;-146.27;90.13;32975.91;5062401;28;20036;-71
2024/01/04 06:54:24;;;;;;;12.77;1.27;;;;;;;-146.27;89.72;32902.50;5068679;28;20170;-71
2024/01/04 06:56:50;;;;;;;1.58;0.90;;;;;;;-146.27;89.18;32946.16;5073847;28;20112;-72
2024/01/04 06:59:15;;;;;;;3.35;1.25;;;;;;;-146.27;89.94;32987.81;5070661;28;20059;-72
2024/01/04 07:01:40;;;;;;;5.35;0.80;;;;;;;-146.27;89.69;32944.19;5071627;28;20023;-71
2024/01/04 07:04:06;;;;;;;4.28;1.42;;;;;;;-146.27;89.43;32914.41;5062031;28;20032;-72
2024/01/04 07:06:31;;;;;;;2.85;1.15;;;;;;;-146.27;89.28;32898.53;5057790;28;20091;-72
2024/01/04 07:08:56;;;;;;;6.80;1.15;;;;;;;-146.27;89.82;32908.47;5062119;28;20674;-72
2024/01/04 07:11:22;;;;;;;3.00;1.17;;;;;;;-146.27;90.27;32942.19;5064476;28;20028;-71
2024/01/04 07:13:48;;;;;;;2.22;1.20;;;;;;;-146.27;89.83;32902.50;5076635;28;20093;-71
2024/01/04 07:16:13;;;;;;;4.93;1.40;;;;;;;-146.27;89.59;32898.53;5086832;28;20468;-72
2024/01/04 07:18:39;;;;;;;2.40;1.42;;;;;;;-146.27;89.72;32866.81;5065396;28;20777;-72
2024/01/04 07:21:05;;;;;;;3.83;1.40;;;;;;;-146.27;89.67;32878.72;5063277;28;20157;-71
2024/01/04 07:23:31;;;;;;;5.22;1.42;;;;;;;-146.27;90.13;32882.66;5060421;28;20377;-71
2024/01/04 07:25:56;;;;;;;5.70;1.15;;;;;;;-146.27;89.76;32835.06;5063421;28;20039;-72
2024/01/04 07:28:22;;;;;;;3.30;1.05;;;;;;;-146.27;89.59;32801.34;5082232;28;20497;-72
2024/01/04 07:30:47;;;;;;;1.85;1.08;;;;;;;-146.27;89.67;32799.34;5069397;28;20032;-71
2024/01/04 07:33:15;;;;;;;7.07;1.02;;;;;;;-146.27;89.79;32761.66;5064417;28;20109;-71
2024/01/04 07:35:40;;;;;;;2.97;1.20;;;;;;;-146.27;89.72;32779.50;5071930;28;20844;-72
2024/01/04 07:38:06;;;;;;;5.43;1.48;;;;;;;-146.27;89.79;32755.69;5067479;28;20036;-71
2024/01/04 07:40:31;;;;;;;4.13;1.42;;;;;;;-146.27;89.64;32763.63;5082130;28;20491;-72
2024/01/04 07:42:56;;;;;;;5.68;1.83;;;;;;;-146.27;89.80;32747.78;5073291;28;20727;-71
2024/01/04 07:45:22;;;;;;;4.50;1.25;;;;;;;-146.27;90.17;32823.16;5069920;28;20085;-71
2024/01/04 07:47:48;;;;;;;4.03;1.23;;;;;;;-146.27;90.48;32785.47;5060010;28;20009;-72
2024/01/04 07:50:13;;;;;;;11.23;1.63;;;;;;;-146.27;90.56;32811.25;5063864;28;20033;-71
2024/01/04 07:52:39;;;;;;;13.77;1.58;;;;;;;-146.27;90.39;32793.41;5058461;28;20479;-71
2024/01/04 07:55:05;;;;;;;7.85;1.65;;;;;;;-146.27;90.29;32771.56;5068930;28;20590;-71
2024/01/04 07:57:30;;;;;;;6.80;1.00;;;;;;;-146.27;90.10;32771.56;5067539;28;20040;-72
2024/01/04 07:59:56;;;;;;;8.25;1.95;;;;;;;-146.27;90.26;32751.75;5070469;28;20036;-73
2024/01/04 08:02:22;;;;;;;6.22;1.27;;;;;;;-146.27;90.91;32785.47;5063567;28;20028;-70
2024/01/04 08:04:47;;;;;;;26.38;1.95;;;;;;;-146.27;90.76;32791.41;5054124;28;20029;-71
2024/01/04 08:07:13;;;;;;;8.82;1.30;;;;;;;-146.27;90.81;32739.84;5065556;28;20039;-71
2024/01/04 08:09:38;;;;;;;9.60;1.38;;;;;;;-146.27;91.07;32751.75;5066410;28;20066;-71
2024/01/04 08:12:04;;;;;;;2.63;0.95;;;;;;;-146.27;91.29;32702.13;5069993;28;20036;-71
2024/01/04 08:14:30;;;;;;;10.43;1.33;;;;;;;-146.27;91.61;32773.56;5067145;28;20025;-71
2024/01/04 08:16:57;;;;;;;6.13;1.40;;;;;;;-146.27;91.74;32813.25;5063037;28;20028;-71
2024/01/04 08:19:22;;;;;;;10.70;1.52;;;;;;;-146.27;92.54;32829.09;5062211;28;20032;-71
2024/01/04 08:21:48;;;;;;;7.68;1.33;;;;;;;-146.27;92.64;32829.09;5078294;28;20638;-71
2024/01/04 08:24:13;;;;;;;4.45;1.25;;;;;;;-146.27;91.90;32775.53;5083599;28;20040;-73
2024/01/04 08:26:42;;;;;;;4.13;1.08;;;;;;;-146.27;91.88;32789.44;5070388;28;20029;-72
2024/01/04 08:29:07;;;;;;;4.93;1.60;;;;;;;-146.27;92.51;32773.56;5079664;28;20082;-71
2024/01/04 08:31:33;;;;;;;5.30;1.10;;;;;;;-146.27;93.18;32841.00;5071407;28;21465;-71
2024/01/04 08:33:58;;;;;;;7.30;1.73;;;;;;;-146.27;92.69;32843.00;5065978;28;20033;-72
2024/01/04 08:36:24;;;;;;;7.90;1.15;;;;;;;-146.27;92.96;32789.44;5067632;28;20024;-72
2024/01/04 08:38:49;;;;;;;7.47;1.20;;;;;;;-146.27;93.17;32809.28;5066320;28;20149;-72
2024/01/04 08:41:15;;;;;;;7.72;1.38;;;;;;;-146.27;92.85;32825.13;5066371;28;20028;-72
2024/01/04 08:43:40;;;;;;;8.02;1.35;;;;;;;-146.27;93.01;32771.56;5068441;28;20032;-72
2024/01/04 08:46:05;;;;;;;7.15;1.27;;;;;;;-146.27;92.91;32787.44;5063875;28;20032;-72
2024/01/04 08:48:31;;;;;;;9.48;1.25;;;;;;;-146.27;93.44;32850.94;5069720;28;20073;-72
2024/01/04 08:50:56;;;;;;;8.18;1.27;;;;;;;-146.27;93.79;32831.09;5059041;28;20039;-72
2024/01/04 08:53:22;;;;;;;5.97;1.48;;;;;;;-146.27;93.88;32795.38;5065273;28;20033;-72
2024/01/04 08:55:48;;;;;;;7.97;1.92;;;;;;;-146.27;94.03;32811.25;5066876;28;20043;-72
2024/01/04 08:58:14;;;;;;;12.80;2.10;;;;;;;-146.27;93.73;32727.94;5069635;28;20028;-75
2024/01/04 09:00:41;;;;;;;9.65;1.85;;;;;;;-146.27;94.62;32787.44;5069549;28;20044;-73
2024/01/04 09:03:06;;;;;;;6.55;1.10;;;;;;;-146.27;94.65;32787.44;5062596;28;20029;-72
2024/01/04 09:05:32;;;;;;;9.48;1.40;;;;;;;-146.27;94.10;32698.19;5068449;28;20024;-72
2024/01/04 09:07:57;;;;;;;11.68;1.42;;;;;;;-146.27;94.07;32755.69;5072012;28;20009;-72
2024/01/04 09:10:24;;;;;;;5.25;1.30;;;;;;;-146.27;93.81;32700.16;5076098;28;20390;-72
2024/01/04 09:12:51;;;;;;;17.95;1.52;;;;;;;-146.27;93.80;32787.44;5073393;28;20039;-72
2024/01/04 09:15:17;;;;;;;8.98;1.77;;;;;;;-146.27;93.46;32733.88;5073492;28;20020;-72
2024/01/04 09:17:43;;;;;;;9.10;2.33;;;;;;;-146.27;93.78;32727.94;5073286;28;20487;-72
2024/01/04 09:20:09;;;;;;;17.98;6.07;;;;;;;-146.27;93.16;32731.91;5067304;28;20067;-72
2024/01/04 09:22:34;;;;;;;12.23;4.63;;;;;;;-146.27;92.86;32716.03;5076091;28;20035;-72
2024/01/04 09:25:00;;;;;;;3.42;1.67;;;;;;;-146.27;93.47;32708.09;5072675;28;20017;-72
2024/01/04 09:27:25;;;;;;;11.00;1.35;;;;;;;-146.27;92.70;32642.63;5086272;28;20077;-72
2024/01/04 09:29:52;;;;;;;6.50;1.70;;;;;;;-146.27;92.52;32644.63;5088399;28;20074;-72
2024/01/04 09:32:18;;;;;;;3.47;1.17;;;;;;;-146.27;92.63;32632.72;5068831;28;20041;-72
2024/01/04 09:34:43;;;;;;;2.97;1.23;;;;;;;-146.27;92.22;32567.25;5056069;28;20028;-72
2024/01/04 09:37:09;;;;;;;4.70;1.15;;;;;;;-146.27;92.65;32606.91;5060759;28;21328;-72
2024/01/04 09:39:34;;;;;;;7.88;1.10;;;;;;;-146.27;92.85;32577.16;5072199;28;20091;-72
2024/01/04 09:42:00;;;;;;;12.00;1.77;;;;;;;-146.27;92.10;32513.69;5088645;28;20056;-72
2024/01/04 09:44:25;;;;;;;11.77;1.52;;;;;;;-146.27;91.71;32493.84;5076081;28;20031;-72
2024/01/04 09:46:57;;;;;;;10.13;1.33;;;;;;;-146.27;91.91;32513.69;5067256;28;20078;-72
2024/01/04 09:49:23;;;;;;;7.03;1.23;;;;;;;-146.27;92.10;32602.94;5068011;28;20100;-72
2024/01/04 09:51:48;;;;;;;8.55;1.60;;;;;;;-146.27;91.90;32553.34;5069064;28;20107;-72
2024/01/04 09:54:14;;;;;;;5.60;1.50;;;;;;;-146.27;91.98;32477.97;5068437;28;20052;-72
2024/01/04 09:56:46;;;;;;;11.00;1.27;;;;;;;-146.27;91.03;32485.91;5070121;28;20398;-72
2024/01/04 09:59:12;;;;;;;9.32;1.40;;;;;;;-146.27;90.22;32489.88;5054972;28;20067;-72
2024/01/04 10:01:38;;;;;;;9.27;1.60;;;;;;;-146.27;90.46;32525.59;5071511;28;20028;-72
2024/01/04 10:04:11;;;;;;;2.13;0.60;;;;;;;-146.27;87.58;32648.56;5070648;28;20035;-71
2024/01/04 10:06:42;;;;;;;0.25;0.25;;;;;;;-146.27;86.48;32767.59;5062603;28;20127;-72
2024/01/04 10:09:14;;;;;;;0.22;0.22;;;;;;;-146.27;86.96;32771.56;5070193;28;20028;-73
2024/01/04 10:12:05;;;;;;;0.57;0.28;;;;;;;-146.27;87.53;32833.06;5068502;28;20025;-72
2024/01/04 10:14:31;;;;;;;5.97;0.70;;;;;;;-146.27;89.20;32888.63;5067518;28;20028;-73
2024/01/04 10:16:57;;;;;;;2.05;0.57;;;;;;;-146.27;90.90;32888.63;5058894;28;20032;-73
2024/01/04 10:19:24;;;;;;;6.50;0.70;;;;;;;-146.27;91.42;32777.53;5067261;28;20067;-72
2024/01/04 10:21:49;;;;;;;2.80;0.90;;;;;;;-146.27;91.34;32839.03;5070645;28;20032;-72
2024/01/04 10:24:25;;;;;;;10.00;1.13;;;;;;;-146.27;90.69;32858.88;5065467;28;20037;-73
2024/01/04 10:27:14;;;;;;;8.13;0.75;;;;;;;-146.27;90.72;32807.28;5071215;28;20020;-71
2024/01/04 10:29:41;;;;;;;5.32;0.90;;;;;;;-146.27;90.42;32731.91;5070731;28;20111;-71
2024/01/04 10:32:13;;;;;;;2.15;0.60;;;;;;;-146.27;89.72;32747.78;5071641;28;20035;-72
2024/01/04 10:34:40;;;;;;;6.63;1.00;;;;;;;-146.27;89.91;32797.38;5064395;28;20575;-71
2024/01/04 10:37:22;;;;;;;6.50;0.90;;;;;;;-146.27;90.29;32539.47;5069205;28;20020;-72
2024/01/04 10:39:57;;;;;;;3.72;0.98;;;;;;;-146.27;90.23;32339.13;5069263;28;20032;-71
2024/01/04 10:42:23;;;;;;;7.30;0.70;;;;;;;-146.27;89.64;32202.25;5067536;28;20119;-72
2024/01/04 10:44:52;;;;;;;1.83;0.47;;;;;;;-146.27;86.55;32261.75;5056226;28;20095;-72
2024/01/04 10:47:18;;;;;;;7.80;0.80;;;;;;;-146.27;86.02;32410.53;5065469;28;20388;-72
2024/01/04 10:49:47;;;;;;;7.70;0.88;;;;;;;-146.27;86.34;32454.16;5061527;28;20024;-71
2024/01/04 10:52:19;;;;;;;2.55;0.80;;;;;;;-146.27;86.34;32396.66;5071513;28;20036;-72
2024/01/04 10:54:45;;;;;;;5.50;0.68;;;;;;;-146.27;86.49;32481.94;5070721;28;20043;-72
2024/01/04 10:57:12;;;;;;;4.75;0.73;;;;;;;-146.27;86.72;32434.34;5068126;28;20121;-72
2024/01/04 10:59:39;;;;;;;4.43;0.60;;;;;;;-146.27;87.02;32485.91;5070869;28;20048;-71
2024/01/04 11:02:05;;;;;;;11.95;0.88;;;;;;;-146.27;87.54;32523.59;5067128;28;20032;-72
2024/01/04 11:04:30;;;;;;;6.85;0.70;;;;;;;-146.27;88.10;32553.34;5069881;28;20119;-72
2024/01/04 11:06:57;;;;;;;6.72;0.75;;;;;;;-146.27;88.92;32604.94;5067459;28;20111;-72
2024/01/04 11:09:25;;;;;;;1.73;0.70;;;;;;;-146.27;88.83;32571.22;5070596;28;20480;-72